sensor_id;sensor_type;location;lat;lon;timestamp;P1;durP1;ratioP1;P2;durP2;ratioP2
29320;SDS011;16323;51.130;6.612;2023-02-22T00:01:08;19.15;;;10.38;;
29320;SDS011;16323;51.130;6.612;2023-02-22T00:03:46;15.38;;;9.13;;
29320;SDS011;16323;51.130;6.612;2023-02-22T00:06:16;17.88;;;9.85;;
29320;SDS011;16323;51.130;6.612;2023-02-22T00:08:46;16.88;;;9.35;;
29320;SDS011;16323;51.130;6.612;2023-02-22T00:11:14;17.95;;;10.13;;
29320;SDS011;16323;51.130;6.612;2023-02-22T00:13:41;18.30;;;10.23;;
29320;SDS011;16323;51.130;6.612;2023-02-22T00:16:09;16.55;;;9.95;;
29320;SDS011;16323;51.130;6.612;2023-02-22T00:18:39;15.55;;;9.27;;
29320;SDS011;16323;51.130;6.612;2023-02-22T00:21:06;15.70;;;9.07;;
29320;SDS011;16323;51.130;6.612;2023-02-22T00:23:36;18.10;;;9.70;;
29320;SDS011;16323;51.130;6.612;2023-02-22T00:26:07;16.70;;;9.48;;
29320;SDS011;16323;51.130;6.612;2023-02-22T00:28:34;17.38;;;9.65;;
29320;SDS011;16323;51.130;6.612;2023-02-22T00:31:02;18.73;;;10.13;;
29320;SDS011;16323;51.130;6.612;2023-02-22T00:33:29;15.68;;;9.00;;
29320;SDS011;16323;51.130;6.612;2023-02-22T00:35:56;15.75;;;9.30;;
29320;SDS011;16323;51.130;6.612;2023-02-22T00:38:23;15.88;;;9.13;;
29320;SDS011;16323;51.130;6.612;2023-02-22T00:40:51;16.35;;;9.25;;
29320;SDS011;16323;51.130;6.612;2023-02-22T00:43:18;15.00;;;8.95;;
29320;SDS011;16323;51.130;6.612;2023-02-22T00:45:44;16.02;;;9.30;;
29320;SDS011;16323;51.130;6.612;2023-02-22T00:48:13;15.48;;;9.15;;
29320;SDS011;16323;51.130;6.612;2023-02-22T00:50:40;15.95;;;8.73;;
29320;SDS011;16323;51.130;6.612;2023-02-22T00:53:07;14.70;;;8.80;;
29320;SDS011;16323;51.130;6.612;2023-02-22T00:55:35;14.45;;;8.68;;
29320;SDS011;16323;51.130;6.612;2023-02-22T00:58:04;15.40;;;8.43;;
29320;SDS011;16323;51.130;6.612;2023-02-22T01:00:32;16.77;;;9.13;;
29320;SDS011;16323;51.130;6.612;2023-02-22T01:03:01;16.33;;;9.45;;
29320;SDS011;16323;51.130;6.612;2023-02-22T01:05:29;14.25;;;8.80;;
29320;SDS011;16323;51.130;6.612;2023-02-22T01:07:57;14.23;;;8.40;;
29320;SDS011;16323;51.130;6.612;2023-02-22T01:10:27;15.98;;;9.05;;
29320;SDS011;16323;51.130;6.612;2023-02-22T01:12:55;16.00;;;8.95;;
29320;SDS011;16323;51.130;6.612;2023-02-22T01:15:25;13.73;;;8.00;;
29320;SDS011;16323;51.130;6.612;2023-02-22T01:17:54;13.10;;;7.80;;
29320;SDS011;16323;51.130;6.612;2023-02-22T01:20:23;13.63;;;8.27;;
29320;SDS011;16323;51.130;6.612;2023-02-22T01:22:52;13.50;;;8.35;;
29320;SDS011;16323;51.130;6.612;2023-02-22T01:25:23;13.40;;;7.85;;
29320;SDS011;16323;51.130;6.612;2023-02-22T01:27:52;13.45;;;7.82;;
29320;SDS011;16323;51.130;6.612;2023-02-22T01:30:20;14.73;;;8.35;;
29320;SDS011;16323;51.130;6.612;2023-02-22T01:32:50;11.30;;;7.78;;
29320;SDS011;16323;51.130;6.612;2023-02-22T01:35:19;12.95;;;7.30;;
29320;SDS011;16323;51.130;6.612;2023-02-22T01:37:47;11.68;;;7.10;;
29320;SDS011;16323;51.130;6.612;2023-02-22T01:40:15;11.40;;;7.20;;
29320;SDS011;16323;51.130;6.612;2023-02-22T01:42:45;10.80;;;7.32;;
29320;SDS011;16323;51.130;6.612;2023-02-22T01:45:37;10.40;;;6.88;;
29320;SDS011;16323;51.130;6.612;2023-02-22T01:48:23;10.40;;;7.00;;
29320;SDS011;16323;51.130;6.612;2023-02-22T01:51:10;10.75;;;6.63;;
29320;SDS011;16323;51.130;6.612;2023-02-22T01:53:41;10.85;;;7.15;;
29320;SDS011;16323;51.130;6.612;2023-02-22T01:56:11;11.18;;;6.90;;
29320;SDS011;16323;51.130;6.612;2023-02-22T01:58:41;10.30;;;6.85;;
29320;SDS011;16323;51.130;6.612;2023-02-22T02:01:11;10.55;;;6.53;;
29320;SDS011;16323;51.130;6.612;2023-02-22T02:03:40;12.18;;;7.10;;
29320;SDS011;16323;51.130;6.612;2023-02-22T02:06:08;10.95;;;6.57;;
29320;SDS011;16323;51.130;6.612;2023-02-22T02:08:40;9.93;;;6.18;;
29320;SDS011;16323;51.130;6.612;2023-02-22T02:11:14;8.90;;;6.05;;
29320;SDS011;16323;51.130;6.612;2023-02-22T02:13:43;11.32;;;6.30;;
29320;SDS011;16323;51.130;6.612;2023-02-22T02:16:10;9.35;;;5.68;;
29320;SDS011;16323;51.130;6.612;2023-02-22T02:18:37;9.68;;;6.10;;
29320;SDS011;16323;51.130;6.612;2023-02-22T02:21:23;10.20;;;6.40;;
29320;SDS011;16323;51.130;6.612;2023-02-22T02:24:29;9.82;;;6.43;;
29320;SDS011;16323;51.130;6.612;2023-02-22T02:27:25;8.98;;;6.13;;
29320;SDS011;16323;51.130;6.612;2023-02-22T02:32:58;10.85;;;6.20;;
29320;SDS011;16323;51.130;6.612;2023-02-22T02:35:33;10.50;;;6.13;;
29320;SDS011;16323;51.130;6.612;2023-02-22T02:38:07;8.35;;;5.78;;
29320;SDS011;16323;51.130;6.612;2023-02-22T02:40:42;10.27;;;6.38;;
29320;SDS011;16323;51.130;6.612;2023-02-22T02:43:14;9.15;;;5.80;;
29320;SDS011;16323;51.130;6.612;2023-02-22T02:45:48;10.57;;;6.45;;
29320;SDS011;16323;51.130;6.612;2023-02-22T02:48:22;10.15;;;6.35;;
29320;SDS011;16323;51.130;6.612;2023-02-22T02:50:52;9.50;;;6.10;;
29320;SDS011;16323;51.130;6.612;2023-02-22T02:53:23;8.90;;;5.80;;
29320;SDS011;16323;51.130;6.612;2023-02-22T02:55:56;10.20;;;6.05;;
29320;SDS011;16323;51.130;6.612;2023-02-22T02:58:23;8.27;;;5.68;;
29320;SDS011;16323;51.130;6.612;2023-02-22T03:00:51;8.48;;;5.47;;
29320;SDS011;16323;51.130;6.612;2023-02-22T03:06:54;7.72;;;5.47;;
29320;SDS011;16323;51.130;6.612;2023-02-22T03:09:38;8.55;;;5.45;;
29320;SDS011;16323;51.130;6.612;2023-02-22T03:12:16;7.93;;;5.15;;
29320;SDS011;16323;51.130;6.612;2023-02-22T03:14:52;8.65;;;5.45;;
29320;SDS011;16323;51.130;6.612;2023-02-22T03:17:36;10.52;;;5.90;;
29320;SDS011;16323;51.130;6.612;2023-02-22T03:20:11;9.20;;;5.32;;
29320;SDS011;16323;51.130;6.612;2023-02-22T03:22:44;9.02;;;5.30;;
29320;SDS011;16323;51.130;6.612;2023-02-22T03:25:19;7.82;;;5.57;;
29320;SDS011;16323;51.130;6.612;2023-02-22T03:27:50;10.05;;;5.55;;
29320;SDS011;16323;51.130;6.612;2023-02-22T03:30:21;8.60;;;5.82;;
29320;SDS011;16323;51.130;6.612;2023-02-22T03:32:53;8.45;;;5.43;;
29320;SDS011;16323;51.130;6.612;2023-02-22T03:35:27;8.35;;;5.40;;
29320;SDS011;16323;51.130;6.612;2023-02-22T03:37:59;8.02;;;5.57;;
29320;SDS011;16323;51.130;6.612;2023-02-22T03:40:30;9.88;;;5.97;;
29320;SDS011;16323;51.130;6.612;2023-02-22T03:43:01;8.35;;;5.40;;
29320;SDS011;16323;51.130;6.612;2023-02-22T03:45:31;7.90;;;5.47;;
29320;SDS011;16323;51.130;6.612;2023-02-22T03:48:02;8.25;;;5.72;;
29320;SDS011;16323;51.130;6.612;2023-02-22T03:50:35;8.50;;;5.80;;
29320;SDS011;16323;51.130;6.612;2023-02-22T03:53:03;8.45;;;5.25;;
29320;SDS011;16323;51.130;6.612;2023-02-22T03:55:31;8.55;;;5.25;;
29320;SDS011;16323;51.130;6.612;2023-02-22T03:57:59;8.60;;;5.50;;
29320;SDS011;16323;51.130;6.612;2023-02-22T04:00:31;7.88;;;5.15;;
29320;SDS011;16323;51.130;6.612;2023-02-22T04:02:59;7.75;;;5.40;;
29320;SDS011;16323;51.130;6.612;2023-02-22T04:05:29;8.70;;;5.57;;
29320;SDS011;16323;51.130;6.612;2023-02-22T04:07:57;8.50;;;5.15;;
29320;SDS011;16323;51.130;6.612;2023-02-22T04:10:24;8.05;;;5.60;;
29320;SDS011;16323;51.130;6.612;2023-02-22T04:12:50;8.55;;;5.53;;
29320;SDS011;16323;51.130;6.612;2023-02-22T04:15:19;9.20;;;6.05;;
29320;SDS011;16323;51.130;6.612;2023-02-22T04:17:47;9.82;;;5.80;;
29320;SDS011;16323;51.130;6.612;2023-02-22T04:20:16;9.73;;;5.75;;
29320;SDS011;16323;51.130;6.612;2023-02-22T04:22:44;9.93;;;6.20;;
29320;SDS011;16323;51.130;6.612;2023-02-22T04:25:13;7.80;;;5.32;;
29320;SDS011;16323;51.130;6.612;2023-02-22T04:27:40;9.88;;;6.13;;
29320;SDS011;16323;51.130;6.612;2023-02-22T04:30:07;10.85;;;6.10;;
29320;SDS011;16323;51.130;6.612;2023-02-22T04:32:34;8.65;;;5.53;;
29320;SDS011;16323;51.130;6.612;2023-02-22T04:35:01;9.88;;;6.30;;
29320;SDS011;16323;51.130;6.612;2023-02-22T04:37:28;9.43;;;6.45;;
29320;SDS011;16323;51.130;6.612;2023-02-22T04:39:58;10.63;;;6.68;;
29320;SDS011;16323;51.130;6.612;2023-02-22T04:42:27;10.10;;;6.93;;
29320;SDS011;16323;51.130;6.612;2023-02-22T04:44:53;10.70;;;7.30;;
29320;SDS011;16323;51.130;6.612;2023-02-22T04:47:20;10.50;;;6.30;;
29320;SDS011;16323;51.130;6.612;2023-02-22T04:49:47;9.50;;;6.38;;
29320;SDS011;16323;51.130;6.612;2023-02-22T04:52:14;10.73;;;6.88;;
29320;SDS011;16323;51.130;6.612;2023-02-22T04:54:41;10.65;;;6.88;;
29320;SDS011;16323;51.130;6.612;2023-02-22T04:57:08;10.23;;;6.93;;
29320;SDS011;16323;51.130;6.612;2023-02-22T04:59:36;8.70;;;6.35;;
29320;SDS011;16323;51.130;6.612;2023-02-22T05:02:03;10.30;;;6.80;;
29320;SDS011;16323;51.130;6.612;2023-02-22T05:04:29;9.20;;;5.85;;
29320;SDS011;16323;51.130;6.612;2023-02-22T05:06:56;9.27;;;6.10;;
29320;SDS011;16323;51.130;6.612;2023-02-22T05:09:23;9.43;;;6.30;;
29320;SDS011;16323;51.130;6.612;2023-02-22T05:11:50;9.00;;;6.70;;
29320;SDS011;16323;51.130;6.612;2023-02-22T05:14:17;10.90;;;6.47;;
29320;SDS011;16323;51.130;6.612;2023-02-22T05:16:45;9.45;;;6.55;;
29320;SDS011;16323;51.130;6.612;2023-02-22T05:19:13;9.52;;;6.60;;
29320;SDS011;16323;51.130;6.612;2023-02-22T05:21:40;8.55;;;5.90;;
29320;SDS011;16323;51.130;6.612;2023-02-22T05:24:07;8.50;;;5.97;;
29320;SDS011;16323;51.130;6.612;2023-02-22T05:26:34;8.23;;;5.82;;
29320;SDS011;16323;51.130;6.612;2023-02-22T05:29:00;9.05;;;5.90;;
29320;SDS011;16323;51.130;6.612;2023-02-22T05:31:27;7.10;;;5.28;;
29320;SDS011;16323;51.130;6.612;2023-02-22T05:33:56;8.75;;;6.07;;
29320;SDS011;16323;51.130;6.612;2023-02-22T05:36:23;8.95;;;5.90;;
29320;SDS011;16323;51.130;6.612;2023-02-22T05:38:49;7.75;;;5.55;;
29320;SDS011;16323;51.130;6.612;2023-02-22T05:41:16;7.45;;;5.38;;
29320;SDS011;16323;51.130;6.612;2023-02-22T05:43:43;7.90;;;5.80;;
29320;SDS011;16323;51.130;6.612;2023-02-22T05:46:10;8.98;;;6.03;;
29320;SDS011;16323;51.130;6.612;2023-02-22T05:48:37;6.80;;;5.10;;
29320;SDS011;16323;51.130;6.612;2023-02-22T05:51:05;7.20;;;5.38;;
29320;SDS011;16323;51.130;6.612;2023-02-22T05:53:33;7.88;;;5.43;;
29320;SDS011;16323;51.130;6.612;2023-02-22T05:56:00;7.85;;;5.68;;
29320;SDS011;16323;51.130;6.612;2023-02-22T05:58:27;7.82;;;5.57;;
29320;SDS011;16323;51.130;6.612;2023-02-22T06:00:54;6.90;;;5.43;;
29320;SDS011;16323;51.130;6.612;2023-02-22T06:03:21;7.07;;;5.13;;
29320;SDS011;16323;51.130;6.612;2023-02-22T06:05:48;5.70;;;4.35;;
29320;SDS011;16323;51.130;6.612;2023-02-22T06:08:16;7.18;;;4.78;;
29320;SDS011;16323;51.130;6.612;2023-02-22T06:10:43;7.57;;;5.25;;
29320;SDS011;16323;51.130;6.612;2023-02-22T06:13:10;6.82;;;4.78;;
29320;SDS011;16323;51.130;6.612;2023-02-22T06:15:36;6.63;;;4.72;;
29320;SDS011;16323;51.130;6.612;2023-02-22T06:18:03;6.85;;;4.82;;
29320;SDS011;16323;51.130;6.612;2023-02-22T06:20:30;9.57;;;4.70;;
29320;SDS011;16323;51.130;6.612;2023-02-22T06:22:57;6.85;;;4.95;;
29320;SDS011;16323;51.130;6.612;2023-02-22T06:25:26;8.05;;;5.38;;
29320;SDS011;16323;51.130;6.612;2023-02-22T06:27:55;7.63;;;5.20;;
29320;SDS011;16323;51.130;6.612;2023-02-22T06:30:22;7.03;;;4.90;;
29320;SDS011;16323;51.130;6.612;2023-02-22T06:32:51;6.57;;;5.03;;
29320;SDS011;16323;51.130;6.612;2023-02-22T06:35:18;8.07;;;5.53;;
29320;SDS011;16323;51.130;6.612;2023-02-22T06:37:45;7.55;;;4.75;;
29320;SDS011;16323;51.130;6.612;2023-02-22T06:40:12;6.35;;;5.07;;
29320;SDS011;16323;51.130;6.612;2023-02-22T06:42:41;8.07;;;5.03;;
29320;SDS011;16323;51.130;6.612;2023-02-22T06:45:08;7.65;;;5.10;;
29320;SDS011;16323;51.130;6.612;2023-02-22T06:47:37;6.57;;;5.13;;
29320;SDS011;16323;51.130;6.612;2023-02-22T06:50:06;7.30;;;4.65;;
29320;SDS011;16323;51.130;6.612;2023-02-22T06:52:40;7.38;;;5.38;;
29320;SDS011;16323;51.130;6.612;2023-02-22T06:55:07;7.47;;;5.25;;
29320;SDS011;16323;51.130;6.612;2023-02-22T06:57:34;7.70;;;5.35;;
29320;SDS011;16323;51.130;6.612;2023-02-22T07:00:02;8.43;;;5.85;;
29320;SDS011;16323;51.130;6.612;2023-02-22T07:02:29;5.82;;;4.72;;
29320;SDS011;16323;51.130;6.612;2023-02-22T07:04:56;7.47;;;5.47;;
29320;SDS011;16323;51.130;6.612;2023-02-22T07:07:23;8.70;;;5.72;;
29320;SDS011;16323;51.130;6.612;2023-02-22T07:09:50;8.68;;;5.97;;
29320;SDS011;16323;51.130;6.612;2023-02-22T07:12:16;8.45;;;5.88;;
29320;SDS011;16323;51.130;6.612;2023-02-22T07:14:43;8.18;;;5.43;;
29320;SDS011;16323;51.130;6.612;2023-02-22T07:17:11;8.40;;;5.53;;
29320;SDS011;16323;51.130;6.612;2023-02-22T07:19:38;8.07;;;5.43;;
29320;SDS011;16323;51.130;6.612;2023-02-22T07:22:05;8.48;;;5.50;;
29320;SDS011;16323;51.130;6.612;2023-02-22T07:24:32;8.82;;;5.88;;
29320;SDS011;16323;51.130;6.612;2023-02-22T07:26:59;8.48;;;5.63;;
29320;SDS011;16323;51.130;6.612;2023-02-22T07:29:26;6.97;;;4.90;;
29320;SDS011;16323;51.130;6.612;2023-02-22T07:31:53;9.70;;;5.40;;
29320;SDS011;16323;51.130;6.612;2023-02-22T07:34:21;8.60;;;5.28;;
29320;SDS011;16323;51.130;6.612;2023-02-22T07:36:48;8.18;;;5.18;;
29320;SDS011;16323;51.130;6.612;2023-02-22T07:39:14;8.43;;;5.45;;
29320;SDS011;16323;51.130;6.612;2023-02-22T07:41:41;8.40;;;5.57;;
29320;SDS011;16323;51.130;6.612;2023-02-22T07:44:08;8.38;;;5.75;;
29320;SDS011;16323;51.130;6.612;2023-02-22T07:46:34;8.25;;;5.75;;
29320;SDS011;16323;51.130;6.612;2023-02-22T07:49:01;8.40;;;5.60;;
29320;SDS011;16323;51.130;6.612;2023-02-22T07:51:30;10.00;;;5.80;;
29320;SDS011;16323;51.130;6.612;2023-02-22T07:53:56;13.55;;;6.22;;
29320;SDS011;16323;51.130;6.612;2023-02-22T07:56:23;8.75;;;5.57;;
29320;SDS011;16323;51.130;6.612;2023-02-22T07:58:50;8.90;;;5.60;;
29320;SDS011;16323;51.130;6.612;2023-02-22T08:01:16;9.18;;;5.57;;
29320;SDS011;16323;51.130;6.612;2023-02-22T08:03:43;7.55;;;4.85;;
29320;SDS011;16323;51.130;6.612;2023-02-22T08:06:11;10.00;;;5.43;;
29320;SDS011;16323;51.130;6.612;2023-02-22T08:08:39;9.63;;;5.30;;
29320;SDS011;16323;51.130;6.612;2023-02-22T08:11:06;8.52;;;5.18;;
29320;SDS011;16323;51.130;6.612;2023-02-22T08:13:34;10.70;;;6.13;;
29320;SDS011;16323;51.130;6.612;2023-02-22T08:16:01;9.45;;;5.35;;
29320;SDS011;16323;51.130;6.612;2023-02-22T08:18:28;9.73;;;5.78;;
29320;SDS011;16323;51.130;6.612;2023-02-22T08:20:55;10.27;;;5.78;;
29320;SDS011;16323;51.130;6.612;2023-02-22T08:23:23;10.52;;;5.13;;
29320;SDS011;16323;51.130;6.612;2023-02-22T08:25:52;8.32;;;5.45;;
29320;SDS011;16323;51.130;6.612;2023-02-22T08:28:20;10.05;;;5.30;;
29320;SDS011;16323;51.130;6.612;2023-02-22T08:30:48;8.73;;;5.60;;
29320;SDS011;16323;51.130;6.612;2023-02-22T08:33:16;9.20;;;5.57;;
29320;SDS011;16323;51.130;6.612;2023-02-22T08:35:44;10.85;;;5.45;;
29320;SDS011;16323;51.130;6.612;2023-02-22T08:38:17;7.78;;;5.25;;
29320;SDS011;16323;51.130;6.612;2023-02-22T08:40:46;9.35;;;5.13;;
29320;SDS011;16323;51.130;6.612;2023-02-22T08:43:15;8.30;;;4.75;;
29320;SDS011;16323;51.130;6.612;2023-02-22T08:45:42;10.30;;;5.82;;
29320;SDS011;16323;51.130;6.612;2023-02-22T08:48:10;10.63;;;5.57;;
29320;SDS011;16323;51.130;6.612;2023-02-22T08:50:38;7.50;;;4.70;;
29320;SDS011;16323;51.130;6.612;2023-02-22T08:53:06;8.77;;;5.18;;
29320;SDS011;16323;51.130;6.612;2023-02-22T08:55:34;8.75;;;5.65;;
29320;SDS011;16323;51.130;6.612;2023-02-22T08:58:03;9.73;;;5.22;;
29320;SDS011;16323;51.130;6.612;2023-02-22T09:00:35;8.80;;;5.20;;
29320;SDS011;16323;51.130;6.612;2023-02-22T09:03:03;9.40;;;5.25;;
29320;SDS011;16323;51.130;6.612;2023-02-22T09:05:31;9.20;;;4.93;;
29320;SDS011;16323;51.130;6.612;2023-02-22T09:07:58;8.90;;;5.38;;
29320;SDS011;16323;51.130;6.612;2023-02-22T09:10:27;8.85;;;4.82;;
29320;SDS011;16323;51.130;6.612;2023-02-22T09:12:56;7.88;;;5.03;;
29320;SDS011;16323;51.130;6.612;2023-02-22T09:15:25;8.88;;;5.15;;
29320;SDS011;16323;51.130;6.612;2023-02-22T09:17:53;8.35;;;5.22;;
29320;SDS011;16323;51.130;6.612;2023-02-22T09:20:21;8.27;;;4.75;;
29320;SDS011;16323;51.130;6.612;2023-02-22T09:22:52;8.38;;;4.78;;
29320;SDS011;16323;51.130;6.612;2023-02-22T09:25:19;8.43;;;4.88;;
29320;SDS011;16323;51.130;6.612;2023-02-22T09:27:47;7.85;;;4.93;;
29320;SDS011;16323;51.130;6.612;2023-02-22T09:30:15;7.45;;;4.25;;
29320;SDS011;16323;51.130;6.612;2023-02-22T09:32:44;7.95;;;5.07;;
29320;SDS011;16323;51.130;6.612;2023-02-22T09:35:12;7.20;;;4.78;;
29320;SDS011;16323;51.130;6.612;2023-02-22T09:37:39;7.47;;;4.15;;
29320;SDS011;16323;51.130;6.612;2023-02-22T09:40:09;7.13;;;4.22;;
29320;SDS011;16323;51.130;6.612;2023-02-22T09:42:43;10.20;;;4.50;;
29320;SDS011;16323;51.130;6.612;2023-02-22T09:45:19;6.90;;;4.00;;
29320;SDS011;16323;51.130;6.612;2023-02-22T09:47:49;8.02;;;4.65;;
29320;SDS011;16323;51.130;6.612;2023-02-22T09:50:21;6.85;;;4.20;;
29320;SDS011;16323;51.130;6.612;2023-02-22T09:52:52;6.10;;;3.72;;
29320;SDS011;16323;51.130;6.612;2023-02-22T09:55:25;6.35;;;4.20;;
29320;SDS011;16323;51.130;6.612;2023-02-22T09:57:58;7.35;;;4.22;;
29320;SDS011;16323;51.130;6.612;2023-02-22T10:00:29;7.55;;;4.07;;
29320;SDS011;16323;51.130;6.612;2023-02-22T10:03:02;6.05;;;4.10;;
29320;SDS011;16323;51.130;6.612;2023-02-22T10:05:42;6.03;;;3.75;;
29320;SDS011;16323;51.130;6.612;2023-02-22T10:08:14;9.60;;;4.68;;
29320;SDS011;16323;51.130;6.612;2023-02-22T10:10:43;6.22;;;3.95;;
29320;SDS011;16323;51.130;6.612;2023-02-22T10:13:19;5.88;;;3.83;;
29320;SDS011;16323;51.130;6.612;2023-02-22T10:15:53;6.72;;;4.10;;
29320;SDS011;16323;51.130;6.612;2023-02-22T10:21:20;6.18;;;4.05;;
29320;SDS011;16323;51.130;6.612;2023-02-22T10:23:58;5.25;;;3.38;;
29320;SDS011;16323;51.130;6.612;2023-02-22T10:26:40;6.32;;;3.88;;
29320;SDS011;16323;51.130;6.612;2023-02-22T10:29:09;6.53;;;3.92;;
29320;SDS011;16323;51.130;6.612;2023-02-22T10:31:47;7.13;;;3.70;;
29320;SDS011;16323;51.130;6.612;2023-02-22T10:34:20;8.00;;;4.03;;
29320;SDS011;16323;51.130;6.612;2023-02-22T10:36:53;5.85;;;3.40;;
29320;SDS011;16323;51.130;6.612;2023-02-22T10:39:24;8.02;;;4.07;;
29320;SDS011;16323;51.130;6.612;2023-02-22T10:41:56;6.13;;;3.50;;
29320;SDS011;16323;51.130;6.612;2023-02-22T10:44:29;7.03;;;3.90;;
29320;SDS011;16323;51.130;6.612;2023-02-22T10:46:57;7.40;;;3.45;;
29320;SDS011;16323;51.130;6.612;2023-02-22T10:49:33;7.07;;;3.63;;
29320;SDS011;16323;51.130;6.612;2023-02-22T10:52:10;5.43;;;3.35;;
29320;SDS011;16323;51.130;6.612;2023-02-22T10:54:40;6.25;;;3.63;;
29320;SDS011;16323;51.130;6.612;2023-02-22T10:57:09;4.57;;;3.00;;
29320;SDS011;16323;51.130;6.612;2023-02-22T10:59:38;6.53;;;3.30;;
29320;SDS011;16323;51.130;6.612;2023-02-22T11:02:12;6.32;;;3.53;;
29320;SDS011;16323;51.130;6.612;2023-02-22T11:04:46;4.07;;;3.15;;
29320;SDS011;16323;51.130;6.612;2023-02-22T11:07:20;8.05;;;3.33;;
29320;SDS011;16323;51.130;6.612;2023-02-22T11:09:49;10.38;;;3.40;;
29320;SDS011;16323;51.130;6.612;2023-02-22T11:12:19;11.80;;;4.22;;
29320;SDS011;16323;51.130;6.612;2023-02-22T11:14:51;11.82;;;3.35;;
29320;SDS011;16323;51.130;6.612;2023-02-22T12:26:15;13.00;;;2.85;;
29320;SDS011;16323;51.130;6.612;2023-02-22T15:21:06;4.65;;;2.42;;
29320;SDS011;16323;51.130;6.612;2023-02-22T16:55:03;3.90;;;2.63;;
29320;SDS011;16323;51.130;6.612;2023-02-22T17:55:42;3.05;;;2.00;;
29320;SDS011;16323;51.130;6.612;2023-02-22T17:58:09;17.65;;;3.17;;
